createdAt,value
2017-08-29T00:01:17.033Z,80.10
2017-08-29T00:06:19.408Z,81.90
2017-08-29T00:11:21.096Z,80.10
2017-08-29T00:16:23.156Z,80.10
2017-08-29T00:21:24.825Z,79.60
2017-08-29T00:26:26.624Z,78.70
2017-08-29T00:31:28.381Z,79.00
2017-08-29T00:36:30.072Z,79.00
2017-08-29T00:41:32.170Z,82.20
2017-08-29T00:46:33.905Z,80.60
2017-08-29T00:51:35.705Z,81.80
2017-08-29T00:56:37.358Z,81.70
2017-08-29T01:01:38.974Z,81.30
2017-08-29T01:06:40.725Z,82.90
2017-08-29T01:11:42.396Z,82.00
2017-08-29T01:16:44.606Z,83.10
2017-08-29T01:21:46.337Z,82.10
2017-08-29T01:26:48.027Z,82.00
2017-08-29T01:31:49.802Z,81.80
2017-08-29T01:36:51.447Z,81.90
2017-08-29T01:41:53.248Z,82.40
2017-08-29T01:46:54.899Z,82.50
2017-08-29T01:51:56.594Z,83.20
2017-08-29T01:56:58.985Z,83.50
2017-08-29T02:02:00.629Z,82.50
2017-08-29T02:07:02.430Z,82.50
2017-08-29T02:12:04.080Z,82.60
2017-08-29T02:17:05.754Z,82.30
2017-08-29T02:22:07.425Z,82.30
2017-08-29T02:27:09.811Z,82.40
2017-08-29T02:32:11.511Z,82.30
2017-08-29T02:37:28.051Z,82.10
2017-08-29T02:42:44.397Z,81.00
2017-08-29T02:48:01.254Z,81.30
2017-08-29T02:53:02.950Z,82.40
2017-08-29T02:58:04.726Z,82.50
2017-08-29T03:03:21.080Z,82.80
2017-08-29T03:08:37.610Z,83.60
2017-08-29T03:13:54.329Z,83.60
2017-08-29T03:18:55.934Z,82.50
2017-08-29T03:23:57.615Z,82.50
2017-08-29T03:28:59.284Z,84.10
2017-08-29T03:34:00.922Z,83.60
2017-08-29T03:39:02.652Z,83.20
2017-08-29T03:44:05.490Z,83.50
2017-08-29T03:49:07.200Z,83.40
2017-08-29T03:54:08.875Z,84.30
2017-08-29T03:59:10.671Z,86.20
2017-08-29T04:04:12.343Z,87.20
2017-08-29T04:09:16.632Z,87.40
2017-08-29T04:14:20.816Z,88.70
2017-08-29T04:19:23.138Z,93.00
2017-08-29T04:24:25.902Z,92.50
2017-08-29T04:29:27.567Z,97.50
2017-08-29T04:34:30.304Z,97.70
2017-08-29T04:39:32.729Z,99.80
2017-08-29T04:44:34.372Z,99.60
2017-08-29T04:49:36.385Z,99.90
2017-08-29T04:54:38.902Z,99.10
2017-08-29T04:59:41.236Z,99.90
2017-08-29T05:04:43.062Z,99.90
2017-08-29T05:09:44.837Z,99.70
2017-08-29T05:14:47.166Z,99.90
2017-08-29T05:19:48.900Z,99.90
2017-08-29T05:24:51.290Z,96.80
2017-08-29T05:29:52.961Z,94.00
2017-08-29T05:34:54.741Z,92.20
2017-08-29T05:39:56.409Z,93.20
2017-08-29T05:45:00.005Z,89.50
2017-08-29T05:50:02.903Z,89.50
2017-08-29T05:55:05.149Z,86.80
2017-08-29T06:00:06.766Z,84.20
2017-08-29T06:05:08.562Z,85.00
2017-08-29T06:10:10.933Z,83.00
2017-08-29T06:15:12.603Z,82.70
2017-08-29T06:20:14.376Z,81.10
2017-08-29T06:25:16.049Z,79.30
2017-08-29T06:30:17.828Z,77.90
2017-08-29T06:35:20.104Z,76.60
2017-08-29T06:40:22.280Z,75.30
2017-08-29T06:45:24.094Z,74.80
2017-08-29T06:50:25.667Z,73.20
2017-08-29T06:55:27.247Z,72.00
2017-08-29T07:00:28.808Z,70.60
2017-08-29T07:05:30.360Z,68.40
2017-08-29T07:10:31.937Z,68.80
2017-08-29T07:15:33.561Z,68.50
2017-08-29T07:20:35.137Z,66.70
2017-08-29T07:25:36.758Z,65.50
2017-08-29T07:30:38.332Z,65.40
2017-08-29T07:35:39.906Z,62.90
2017-08-29T07:40:41.521Z,62.10
2017-08-29T07:45:43.103Z,60.90
2017-08-29T07:50:44.712Z,60.30
2017-08-29T07:55:46.306Z,58.80
2017-08-29T08:00:47.922Z,57.70
2017-08-29T08:05:49.424Z,56.80
2017-08-29T08:10:51.049Z,56.20
2017-08-29T08:15:52.656Z,55.50
2017-08-29T08:20:54.226Z,55.40
2017-08-29T08:25:55.808Z,53.90
2017-08-29T08:30:57.385Z,52.30
2017-08-29T08:35:58.957Z,51.20
2017-08-29T08:41:00.533Z,51.70
2017-08-29T08:46:02.110Z,52.60
2017-08-29T08:51:03.676Z,50.50
2017-08-29T08:56:05.257Z,48.80
2017-08-29T09:01:06.893Z,49.10
2017-08-29T09:06:08.493Z,51.00
2017-08-29T09:11:10.072Z,50.80
2017-08-29T09:16:11.728Z,51.40
2017-08-29T09:21:13.324Z,48.80
2017-08-29T09:26:14.893Z,48.00
2017-08-29T09:31:16.456Z,48.90
2017-08-29T09:36:19.012Z,46.70
2017-08-29T09:41:20.552Z,46.50
2017-08-29T09:46:22.413Z,46.60
2017-08-29T09:51:23.982Z,46.00
2017-08-29T09:56:25.569Z,44.00
2017-08-29T10:01:27.129Z,43.40
2017-08-29T10:06:28.704Z,45.90
2017-08-29T10:11:30.266Z,48.40
2017-08-29T10:16:31.853Z,49.20
2017-08-29T10:21:33.441Z,49.10
2017-08-29T10:26:35.017Z,50.00
2017-08-29T10:31:36.550Z,47.00
2017-08-29T10:36:38.161Z,48.50
2017-08-29T10:41:39.729Z,47.50
2017-08-29T10:46:42.158Z,46.60
2017-08-29T10:51:43.756Z,48.50
2017-08-29T10:56:45.338Z,49.70
2017-08-29T11:01:46.908Z,50.30
2017-08-29T11:06:48.488Z,50.00
2017-08-29T11:11:50.066Z,50.30
2017-08-29T11:16:51.637Z,51.60
2017-08-29T11:21:53.208Z,50.60
2017-08-29T11:26:54.821Z,49.00
2017-08-29T11:31:56.437Z,49.30
2017-08-29T11:36:58.054Z,50.20
2017-08-29T11:41:59.685Z,51.20
2017-08-29T11:47:01.320Z,49.30
2017-08-29T11:52:02.943Z,48.70
2017-08-29T11:57:04.552Z,48.30
2017-08-29T12:02:06.175Z,49.80
2017-08-29T12:07:07.789Z,47.10
2017-08-29T12:12:09.800Z,50.10
2017-08-29T12:17:11.365Z,48.00
2017-08-29T12:22:12.942Z,48.20
2017-08-29T12:27:14.525Z,50.30
2017-08-29T12:32:16.084Z,48.40
2017-08-29T12:37:17.664Z,47.80
2017-08-29T12:42:19.242Z,47.40
2017-08-29T12:47:20.874Z,45.60
2017-08-29T12:52:22.445Z,47.30
2017-08-29T12:57:24.021Z,46.90
2017-08-29T13:02:25.592Z,48.90
2017-08-29T13:07:27.165Z,46.90
2017-08-29T13:12:28.789Z,45.70
2017-08-29T13:17:30.357Z,46.60
2017-08-29T13:22:31.991Z,44.30
2017-08-29T13:27:33.613Z,45.50
2017-08-29T13:32:35.213Z,45.10
2017-08-29T13:37:36.832Z,45.90
2017-08-29T13:42:38.352Z,42.70
2017-08-29T13:47:39.930Z,43.40
2017-08-29T13:52:41.459Z,44.10
2017-08-29T13:57:43.035Z,45.00
2017-08-29T14:02:44.613Z,43.40
2017-08-29T14:07:46.195Z,43.70
2017-08-29T14:12:48.053Z,42.80
2017-08-29T14:17:49.625Z,42.50
2017-08-29T14:22:51.185Z,41.30
2017-08-29T14:27:52.756Z,41.30
2017-08-29T14:32:54.361Z,42.20
2017-08-29T14:37:55.928Z,43.40
2017-08-29T14:42:57.511Z,42.20
2017-08-29T14:48:11.069Z,41.10
2017-08-29T14:53:12.637Z,41.20
2017-08-29T14:58:14.200Z,40.30
2017-08-29T15:03:15.765Z,42.10
2017-08-29T15:08:17.329Z,41.90
2017-08-29T15:13:18.892Z,41.70
2017-08-29T15:18:20.453Z,42.30
2017-08-29T15:23:22.019Z,40.80
2017-08-29T15:28:23.591Z,41.10
2017-08-29T15:33:25.155Z,41.10
2017-08-29T15:38:26.730Z,41.30
2017-08-29T15:43:28.301Z,40.70
2017-08-29T15:48:29.867Z,41.60
2017-08-29T15:53:31.433Z,40.40
2017-08-29T15:58:33.001Z,41.10
2017-08-29T16:03:34.571Z,41.10
2017-08-29T16:08:36.161Z,41.50
2017-08-29T16:13:37.744Z,41.20
2017-08-29T16:18:39.315Z,41.10
2017-08-29T16:23:40.885Z,41.20
2017-08-29T16:28:42.460Z,41.20
2017-08-29T16:33:44.159Z,40.60
2017-08-29T16:38:45.825Z,41.00
2017-08-29T16:43:47.501Z,41.00
2017-08-29T16:48:49.168Z,41.10
2017-08-29T16:53:50.852Z,40.90
2017-08-29T16:58:52.508Z,41.80
2017-08-29T17:03:54.177Z,45.10
2017-08-29T17:08:55.912Z,47.60
2017-08-29T17:13:57.592Z,49.50
2017-08-29T17:18:59.347Z,51.00
2017-08-29T17:24:01.021Z,51.80
2017-08-29T17:29:02.686Z,53.20
2017-08-29T17:34:04.490Z,54.70
2017-08-29T17:39:06.365Z,55.10
2017-08-29T17:44:08.014Z,55.50
2017-08-29T17:49:09.711Z,56.40
2017-08-29T17:54:11.361Z,57.40
2017-08-29T17:59:13.057Z,57.20
2017-08-29T18:04:14.730Z,58.10
2017-08-29T18:09:16.378Z,57.70
2017-08-29T18:14:18.077Z,58.50
2017-08-29T18:19:19.749Z,58.40
2017-08-29T18:24:21.502Z,59.20
2017-08-29T18:29:24.198Z,59.20
2017-08-29T18:34:26.740Z,59.40
2017-08-29T18:39:29.288Z,59.70
2017-08-29T18:44:31.183Z,59.30
2017-08-29T18:49:35.689Z,59.50
2017-08-29T18:54:37.478Z,59.70
2017-08-29T18:59:39.458Z,60.20
2017-08-29T19:04:41.153Z,60.00
2017-08-29T19:09:44.542Z,59.80
2017-08-29T19:14:46.449Z,59.70
2017-08-29T19:19:48.119Z,59.90
2017-08-29T19:24:49.801Z,59.90
2017-08-29T19:29:51.442Z,59.60
2017-08-29T19:34:53.240Z,59.40
2017-08-29T19:39:54.872Z,59.50
2017-08-29T19:44:56.557Z,59.40
2017-08-29T19:49:58.564Z,59.30
2017-08-29T19:55:00.209Z,59.30
2017-08-29T20:00:03.148Z,59.20
2017-08-29T20:05:04.789Z,59.00
2017-08-29T20:10:07.199Z,58.90
2017-08-29T20:15:08.809Z,59.10
2017-08-29T20:20:10.443Z,58.90
2017-08-29T20:25:12.089Z,58.60
2017-08-29T20:30:13.790Z,59.10
2017-08-29T20:35:15.409Z,59.20
2017-08-29T20:40:17.003Z,59.40
2017-08-29T20:45:18.886Z,59.20
2017-08-29T20:50:20.634Z,59.40
2017-08-29T20:55:22.358Z,59.90
2017-08-29T21:00:24.133Z,60.30
2017-08-29T21:05:25.755Z,60.60
2017-08-29T21:10:27.661Z,60.80
2017-08-29T21:15:29.439Z,61.00
2017-08-29T21:20:31.734Z,61.50
2017-08-29T21:25:33.521Z,61.40
2017-08-29T21:30:35.798Z,61.90
2017-08-29T21:35:37.526Z,62.10
2017-08-29T21:40:39.233Z,62.40
2017-08-29T21:45:40.877Z,61.90
2017-08-29T21:50:42.425Z,62.10
2017-08-29T21:55:44.587Z,62.10
2017-08-29T22:00:46.544Z,62.60
2017-08-29T22:05:48.218Z,62.40
2017-08-29T22:10:49.914Z,62.20
2017-08-29T22:15:52.189Z,61.50
2017-08-29T22:20:53.846Z,61.80
2017-08-29T22:25:55.581Z,63.00
2017-08-29T22:30:57.291Z,63.90
2017-08-29T22:35:58.988Z,65.80
2017-08-29T22:41:00.637Z,67.90
2017-08-29T22:46:02.335Z,70.20
2017-08-29T22:51:03.983Z,72.70
2017-08-29T22:56:05.680Z,74.20
2017-08-29T23:01:07.640Z,78.10
2017-08-29T23:06:09.536Z,80.70
2017-08-29T23:11:11.209Z,82.00
2017-08-29T23:16:12.882Z,81.80
2017-08-29T23:21:14.554Z,81.80
2017-08-29T23:26:18.681Z,82.70
2017-08-29T23:31:21.352Z,82.10
2017-08-29T23:36:23.264Z,82.90
2017-08-29T23:41:25.036Z,80.50
2017-08-29T23:46:26.684Z,79.60
2017-08-29T23:51:28.388Z,81.40
2017-08-29T23:56:30.053Z,82.40
